Mc Cook Ben Nelson Regional Airport
KMCK : now visible

Airfield :











YOU CAN JOIN US ON...

 
LOGIN :

Register | Disclaimer

   EN    FR    IT 

 









Legend :    VFR   Marginal VFR   IFR   Intensive IFR   Very Intensive IFR
Visi :
Ceiling :
>= 8 km
>= 3000ft
5 to 8 km
1000 to 3000 ft
1500m to 5 km
500 to 1000 ft
800 to 1500m
200 to 500 ft
< 800m
< 200 ft
Symbols :   Thunderstorms  Fog  Heavy snow  Heavy precipitations  Wind > 20 kt






- Airport Elevation : 2583 ft


KMCK - Mc Cook Ben Nelson Regional

CURRENT METAR :
  • 260553Z AUTO 13012KT 9SM OVC007 08/06 A2981 RMK AO2 CIG 006V010 SLP101 T00780061 10083 20050 401060006 58023

EXPIRED METARs :
  • 260453Z AUTO 13016KT 10SM OVC006 08/06 A2985 RMK AO2 SLP113 T00780061
  • 260353Z AUTO 12012G19KT 10SM OVC006 07/06 A2988 RMK AO2 SLP126 T00670056

TAF KMCK
Valid from the 26 at 06:00 until the 27 at 06:00 UTC


260520Z 2606/2706 12013KT P6SM BKN006 WS020/17040KT
FM260900 13012KT P6SM BKN006 BKN015 WS020/18040KT
FM261300 13011KT 5SM BR OVC005 WS020/18035KT
FM261400 13012KT 2SM BR BKN005
FM261500 13012KT 6SM BR BKN010
FM261700 15016G27KT P6SM SCT015
FM270400 35012KT 6SM BR VCSH BKN019
FM270500 34016G27KT 6SM -SHRA BR BKN020
KZDV FIR / North America



MET'MAP, your aeronautical weather chart ! - Copyright ORBIFLY December 2007 - Disclaimer

ORBIFLY MET'MAP TEAM :

Programming & Development : Alexandra Zaïnal
Concept & original design : Baudouin d'Aumeries
Assistance for programming : Marc-Olivier Méhu
Technical & hardware support : Manuel Goepfert

Contact : metmap@orbifly.com




SOURCES & CREDITS :

   NOAA       Earth
Advisory